sensor_id;sensor_type;location;lat;lon;timestamp;P1;durP1;ratioP1;P2;durP2;ratioP2
66139;SDS011;52945;51.908;8.364;2023-07-09T00:01:25;5.03;;;3.60;;
66139;SDS011;52945;51.908;8.364;2023-07-09T00:04:26;6.10;;;3.60;;
66139;SDS011;52945;51.908;8.364;2023-07-09T00:07:31;7.68;;;4.13;;
66139;SDS011;52945;51.908;8.364;2023-07-09T00:10:33;7.25;;;3.50;;
66139;SDS011;52945;51.908;8.364;2023-07-09T00:13:35;6.82;;;3.78;;
66139;SDS011;52945;51.908;8.364;2023-07-09T00:16:36;6.72;;;3.80;;
66139;SDS011;52945;51.908;8.364;2023-07-09T00:19:38;7.75;;;4.07;;
66139;SDS011;52945;51.908;8.364;2023-07-09T00:22:42;7.50;;;4.03;;
66139;SDS011;52945;51.908;8.364;2023-07-09T00:25:48;7.38;;;3.88;;
66139;SDS011;52945;51.908;8.364;2023-07-09T00:28:48;8.48;;;4.20;;
66139;SDS011;52945;51.908;8.364;2023-07-09T00:31:49;6.03;;;3.80;;
66139;SDS011;52945;51.908;8.364;2023-07-09T00:34:50;7.00;;;4.47;;
66139;SDS011;52945;51.908;8.364;2023-07-09T00:37:51;10.23;;;4.68;;
66139;SDS011;52945;51.908;8.364;2023-07-09T00:41:05;6.93;;;3.97;;
66139;SDS011;52945;51.908;8.364;2023-07-09T00:47:25;6.78;;;4.10;;
66139;SDS011;52945;51.908;8.364;2023-07-09T00:50:33;7.53;;;4.25;;
66139;SDS011;52945;51.908;8.364;2023-07-09T00:53:45;8.25;;;4.30;;
66139;SDS011;52945;51.908;8.364;2023-07-09T00:56:50;7.72;;;4.05;;
66139;SDS011;52945;51.908;8.364;2023-07-09T00:59:55;6.93;;;4.25;;
66139;SDS011;52945;51.908;8.364;2023-07-09T01:02:59;6.07;;;3.80;;
66139;SDS011;52945;51.908;8.364;2023-07-09T01:06:01;7.32;;;4.28;;
66139;SDS011;52945;51.908;8.364;2023-07-09T01:09:03;6.75;;;4.40;;
66139;SDS011;52945;51.908;8.364;2023-07-09T01:12:04;6.97;;;4.20;;
66139;SDS011;52945;51.908;8.364;2023-07-09T01:15:08;8.40;;;3.85;;
66139;SDS011;52945;51.908;8.364;2023-07-09T01:18:11;7.55;;;4.50;;
66139;SDS011;52945;51.908;8.364;2023-07-09T01:21:12;7.00;;;4.03;;
66139;SDS011;52945;51.908;8.364;2023-07-09T01:24:16;6.50;;;4.35;;
66139;SDS011;52945;51.908;8.364;2023-07-09T01:27:54;7.68;;;4.30;;
66139;SDS011;52945;51.908;8.364;2023-07-09T01:30:54;7.72;;;4.28;;
66139;SDS011;52945;51.908;8.364;2023-07-09T01:33:56;7.28;;;4.00;;
66139;SDS011;52945;51.908;8.364;2023-07-09T01:36:57;7.10;;;4.40;;
66139;SDS011;52945;51.908;8.364;2023-07-09T01:39:57;7.07;;;4.35;;
66139;SDS011;52945;51.908;8.364;2023-07-09T01:42:58;7.35;;;4.30;;
66139;SDS011;52945;51.908;8.364;2023-07-09T01:46:00;9.23;;;4.50;;
66139;SDS011;52945;51.908;8.364;2023-07-09T01:49:01;8.85;;;4.68;;
66139;SDS011;52945;51.908;8.364;2023-07-09T01:52:02;8.02;;;4.72;;
66139;SDS011;52945;51.908;8.364;2023-07-09T01:55:04;7.28;;;4.50;;
66139;SDS011;52945;51.908;8.364;2023-07-09T01:58:05;7.55;;;4.72;;
66139;SDS011;52945;51.908;8.364;2023-07-09T02:01:07;8.15;;;4.65;;
66139;SDS011;52945;51.908;8.364;2023-07-09T02:04:08;8.55;;;5.07;;
66139;SDS011;52945;51.908;8.364;2023-07-09T02:07:08;7.82;;;4.40;;
66139;SDS011;52945;51.908;8.364;2023-07-09T02:10:10;7.78;;;4.45;;
66139;SDS011;52945;51.908;8.364;2023-07-09T02:13:11;8.82;;;4.53;;
66139;SDS011;52945;51.908;8.364;2023-07-09T02:16:12;7.88;;;4.18;;
66139;SDS011;52945;51.908;8.364;2023-07-09T02:19:12;7.90;;;4.60;;
66139;SDS011;52945;51.908;8.364;2023-07-09T02:22:13;8.88;;;4.85;;
66139;SDS011;52945;51.908;8.364;2023-07-09T02:25:14;6.63;;;4.15;;
66139;SDS011;52945;51.908;8.364;2023-07-09T02:28:14;9.32;;;4.65;;
66139;SDS011;52945;51.908;8.364;2023-07-09T02:31:15;8.15;;;4.53;;
66139;SDS011;52945;51.908;8.364;2023-07-09T02:34:16;9.13;;;4.80;;
66139;SDS011;52945;51.908;8.364;2023-07-09T02:37:17;8.07;;;4.45;;
66139;SDS011;52945;51.908;8.364;2023-07-09T02:40:19;7.35;;;4.22;;
66139;SDS011;52945;51.908;8.364;2023-07-09T02:43:19;8.13;;;4.88;;
66139;SDS011;52945;51.908;8.364;2023-07-09T02:46:20;7.28;;;4.43;;
66139;SDS011;52945;51.908;8.364;2023-07-09T02:49:21;8.68;;;4.55;;
66139;SDS011;52945;51.908;8.364;2023-07-09T02:52:22;8.23;;;4.30;;
66139;SDS011;52945;51.908;8.364;2023-07-09T02:55:22;7.25;;;4.45;;
66139;SDS011;52945;51.908;8.364;2023-07-09T02:58:23;8.43;;;4.75;;
66139;SDS011;52945;51.908;8.364;2023-07-09T03:01:24;7.90;;;4.82;;
66139;SDS011;52945;51.908;8.364;2023-07-09T03:04:27;7.63;;;4.75;;
66139;SDS011;52945;51.908;8.364;2023-07-09T03:07:27;8.63;;;4.57;;
66139;SDS011;52945;51.908;8.364;2023-07-09T03:10:28;8.13;;;4.93;;
66139;SDS011;52945;51.908;8.364;2023-07-09T03:13:28;9.98;;;4.80;;
66139;SDS011;52945;51.908;8.364;2023-07-09T03:16:30;7.28;;;4.72;;
66139;SDS011;52945;51.908;8.364;2023-07-09T03:19:32;7.30;;;4.80;;
66139;SDS011;52945;51.908;8.364;2023-07-09T03:22:33;8.60;;;4.90;;
66139;SDS011;52945;51.908;8.364;2023-07-09T03:25:33;8.90;;;4.78;;
66139;SDS011;52945;51.908;8.364;2023-07-09T03:28:34;6.93;;;4.57;;
66139;SDS011;52945;51.908;8.364;2023-07-09T03:31:34;9.00;;;5.07;;
66139;SDS011;52945;51.908;8.364;2023-07-09T03:34:35;7.35;;;4.45;;
66139;SDS011;52945;51.908;8.364;2023-07-09T03:37:35;8.48;;;5.15;;
66139;SDS011;52945;51.908;8.364;2023-07-09T03:40:38;8.20;;;4.85;;
66139;SDS011;52945;51.908;8.364;2023-07-09T03:43:38;8.00;;;4.95;;
66139;SDS011;52945;51.908;8.364;2023-07-09T03:46:39;9.65;;;5.40;;
66139;SDS011;52945;51.908;8.364;2023-07-09T03:49:39;8.65;;;4.72;;
66139;SDS011;52945;51.908;8.364;2023-07-09T03:52:41;7.38;;;4.78;;
66139;SDS011;52945;51.908;8.364;2023-07-09T03:55:42;6.43;;;4.50;;
66139;SDS011;52945;51.908;8.364;2023-07-09T03:58:46;8.40;;;4.95;;
66139;SDS011;52945;51.908;8.364;2023-07-09T04:01:46;8.20;;;4.93;;
66139;SDS011;52945;51.908;8.364;2023-07-09T04:04:47;8.70;;;5.10;;
66139;SDS011;52945;51.908;8.364;2023-07-09T04:07:48;8.38;;;5.22;;
66139;SDS011;52945;51.908;8.364;2023-07-09T04:10:48;8.68;;;5.15;;
66139;SDS011;52945;51.908;8.364;2023-07-09T04:13:49;9.85;;;5.55;;
66139;SDS011;52945;51.908;8.364;2023-07-09T04:16:49;8.38;;;4.95;;
66139;SDS011;52945;51.908;8.364;2023-07-09T04:19:50;7.80;;;4.65;;
66139;SDS011;52945;51.908;8.364;2023-07-09T04:22:51;9.25;;;5.50;;
66139;SDS011;52945;51.908;8.364;2023-07-09T04:25:51;8.45;;;4.93;;
66139;SDS011;52945;51.908;8.364;2023-07-09T04:28:52;8.13;;;5.10;;
66139;SDS011;52945;51.908;8.364;2023-07-09T04:31:53;8.85;;;5.00;;
66139;SDS011;52945;51.908;8.364;2023-07-09T04:34:53;8.95;;;5.22;;
66139;SDS011;52945;51.908;8.364;2023-07-09T04:37:54;7.78;;;5.30;;
66139;SDS011;52945;51.908;8.364;2023-07-09T04:40:55;9.93;;;5.78;;
66139;SDS011;52945;51.908;8.364;2023-07-09T04:43:55;8.05;;;5.15;;
66139;SDS011;52945;51.908;8.364;2023-07-09T04:46:56;9.40;;;5.18;;
66139;SDS011;52945;51.908;8.364;2023-07-09T04:49:56;8.27;;;5.13;;
66139;SDS011;52945;51.908;8.364;2023-07-09T04:52:57;9.20;;;5.15;;
66139;SDS011;52945;51.908;8.364;2023-07-09T04:55:59;8.85;;;4.75;;
66139;SDS011;52945;51.908;8.364;2023-07-09T04:58:59;7.80;;;5.00;;
66139;SDS011;52945;51.908;8.364;2023-07-09T05:02:00;9.38;;;5.82;;
66139;SDS011;52945;51.908;8.364;2023-07-09T05:05:00;7.97;;;5.35;;
66139;SDS011;52945;51.908;8.364;2023-07-09T05:08:01;8.45;;;5.10;;
66139;SDS011;52945;51.908;8.364;2023-07-09T05:11:01;7.82;;;5.00;;
66139;SDS011;52945;51.908;8.364;2023-07-09T05:14:02;8.93;;;4.90;;
66139;SDS011;52945;51.908;8.364;2023-07-09T05:17:03;8.57;;;5.10;;
66139;SDS011;52945;51.908;8.364;2023-07-09T05:20:04;9.77;;;5.45;;
66139;SDS011;52945;51.908;8.364;2023-07-09T05:23:06;8.07;;;4.57;;
66139;SDS011;52945;51.908;8.364;2023-07-09T05:26:08;7.00;;;4.70;;
66139;SDS011;52945;51.908;8.364;2023-07-09T05:29:09;8.88;;;5.03;;
66139;SDS011;52945;51.908;8.364;2023-07-09T05:32:10;9.35;;;4.93;;
66139;SDS011;52945;51.908;8.364;2023-07-09T05:35:10;8.60;;;4.85;;
66139;SDS011;52945;51.908;8.364;2023-07-09T05:38:11;7.18;;;4.80;;
66139;SDS011;52945;51.908;8.364;2023-07-09T05:41:13;8.68;;;4.95;;
66139;SDS011;52945;51.908;8.364;2023-07-09T05:44:16;7.10;;;4.60;;
66139;SDS011;52945;51.908;8.364;2023-07-09T05:47:17;9.52;;;4.85;;
66139;SDS011;52945;51.908;8.364;2023-07-09T05:50:17;7.00;;;4.45;;
66139;SDS011;52945;51.908;8.364;2023-07-09T05:53:18;7.45;;;4.65;;
66139;SDS011;52945;51.908;8.364;2023-07-09T05:56:19;6.78;;;3.88;;
66139;SDS011;52945;51.908;8.364;2023-07-09T05:59:19;9.82;;;4.10;;
66139;SDS011;52945;51.908;8.364;2023-07-09T06:02:20;7.72;;;4.25;;
66139;SDS011;52945;51.908;8.364;2023-07-09T06:05:21;6.45;;;4.00;;
66139;SDS011;52945;51.908;8.364;2023-07-09T06:08:22;7.03;;;4.13;;
66139;SDS011;52945;51.908;8.364;2023-07-09T06:11:22;7.47;;;4.30;;
66139;SDS011;52945;51.908;8.364;2023-07-09T06:14:24;7.90;;;4.00;;
66139;SDS011;52945;51.908;8.364;2023-07-09T06:17:25;7.93;;;4.28;;
66139;SDS011;52945;51.908;8.364;2023-07-09T06:20:26;8.65;;;4.05;;
66139;SDS011;52945;51.908;8.364;2023-07-09T06:23:26;8.30;;;4.22;;
66139;SDS011;52945;51.908;8.364;2023-07-09T06:26:27;7.95;;;4.20;;
66139;SDS011;52945;51.908;8.364;2023-07-09T06:29:28;7.32;;;4.07;;
66139;SDS011;52945;51.908;8.364;2023-07-09T06:32:28;6.55;;;4.20;;
66139;SDS011;52945;51.908;8.364;2023-07-09T06:35:29;6.50;;;4.13;;
66139;SDS011;52945;51.908;8.364;2023-07-09T06:38:30;7.15;;;4.20;;
66139;SDS011;52945;51.908;8.364;2023-07-09T06:41:30;9.15;;;4.50;;
66139;SDS011;52945;51.908;8.364;2023-07-09T06:44:32;7.03;;;3.67;;
66139;SDS011;52945;51.908;8.364;2023-07-09T06:47:33;7.22;;;3.65;;
66139;SDS011;52945;51.908;8.364;2023-07-09T06:50:34;9.35;;;3.70;;
66139;SDS011;52945;51.908;8.364;2023-07-09T06:53:35;5.90;;;4.00;;
66139;SDS011;52945;51.908;8.364;2023-07-09T06:56:36;10.45;;;3.53;;
66139;SDS011;52945;51.908;8.364;2023-07-09T06:59:37;7.07;;;3.92;;
66139;SDS011;52945;51.908;8.364;2023-07-09T07:02:38;8.85;;;3.80;;
66139;SDS011;52945;51.908;8.364;2023-07-09T07:05:42;6.63;;;4.20;;
66139;SDS011;52945;51.908;8.364;2023-07-09T07:08:44;6.20;;;3.70;;
66139;SDS011;52945;51.908;8.364;2023-07-09T07:11:45;7.55;;;3.72;;
66139;SDS011;52945;51.908;8.364;2023-07-09T07:14:45;5.57;;;3.63;;
66139;SDS011;52945;51.908;8.364;2023-07-09T07:17:46;5.95;;;3.67;;
66139;SDS011;52945;51.908;8.364;2023-07-09T07:20:47;7.70;;;3.90;;
66139;SDS011;52945;51.908;8.364;2023-07-09T07:23:47;8.80;;;3.90;;
66139;SDS011;52945;51.908;8.364;2023-07-09T07:26:48;6.40;;;3.35;;
66139;SDS011;52945;51.908;8.364;2023-07-09T07:29:48;5.65;;;3.72;;
66139;SDS011;52945;51.908;8.364;2023-07-09T07:32:49;8.10;;;4.03;;
66139;SDS011;52945;51.908;8.364;2023-07-09T07:35:50;7.25;;;4.03;;
66139;SDS011;52945;51.908;8.364;2023-07-09T07:38:50;6.50;;;3.72;;
66139;SDS011;52945;51.908;8.364;2023-07-09T07:41:51;7.60;;;3.95;;
66139;SDS011;52945;51.908;8.364;2023-07-09T07:44:51;6.28;;;3.88;;
66139;SDS011;52945;51.908;8.364;2023-07-09T07:47:52;6.07;;;3.80;;
66139;SDS011;52945;51.908;8.364;2023-07-09T07:50:58;8.38;;;4.05;;
66139;SDS011;52945;51.908;8.364;2023-07-09T07:53:59;7.85;;;4.10;;
66139;SDS011;52945;51.908;8.364;2023-07-09T07:57:00;7.90;;;3.80;;
66139;SDS011;52945;51.908;8.364;2023-07-09T08:00:01;6.82;;;3.65;;
66139;SDS011;52945;51.908;8.364;2023-07-09T08:03:03;7.55;;;3.70;;
66139;SDS011;52945;51.908;8.364;2023-07-09T08:06:04;6.07;;;3.63;;
66139;SDS011;52945;51.908;8.364;2023-07-09T08:09:04;5.68;;;3.85;;
66139;SDS011;52945;51.908;8.364;2023-07-09T08:12:05;8.70;;;3.95;;
66139;SDS011;52945;51.908;8.364;2023-07-09T08:15:11;6.47;;;4.00;;
66139;SDS011;52945;51.908;8.364;2023-07-09T08:18:12;6.38;;;3.90;;
66139;SDS011;52945;51.908;8.364;2023-07-09T08:21:12;7.85;;;3.97;;
66139;SDS011;52945;51.908;8.364;2023-07-09T08:24:13;6.60;;;3.78;;
66139;SDS011;52945;51.908;8.364;2023-07-09T08:27:14;5.95;;;3.70;;
66139;SDS011;52945;51.908;8.364;2023-07-09T08:30:15;8.02;;;4.13;;
66139;SDS011;52945;51.908;8.364;2023-07-09T08:33:16;8.52;;;3.90;;
66139;SDS011;52945;51.908;8.364;2023-07-09T08:36:16;7.45;;;3.40;;
66139;SDS011;52945;51.908;8.364;2023-07-09T08:39:17;7.63;;;3.50;;
66139;SDS011;52945;51.908;8.364;2023-07-09T08:42:21;6.70;;;3.53;;
66139;SDS011;52945;51.908;8.364;2023-07-09T08:46:13;5.70;;;3.55;;
66139;SDS011;52945;51.908;8.364;2023-07-09T08:49:01;4.90;;;3.47;;
66139;SDS011;52945;51.908;8.364;2023-07-09T08:52:04;8.35;;;3.33;;
66139;SDS011;52945;51.908;8.364;2023-07-09T08:55:15;5.65;;;3.58;;
66139;SDS011;52945;51.908;8.364;2023-07-09T08:58:39;7.85;;;3.40;;
66139;SDS011;52945;51.908;8.364;2023-07-09T09:01:44;7.28;;;3.22;;
66139;SDS011;52945;51.908;8.364;2023-07-09T09:04:50;6.72;;;3.80;;
66139;SDS011;52945;51.908;8.364;2023-07-09T09:07:56;7.95;;;3.90;;
66139;SDS011;52945;51.908;8.364;2023-07-09T09:11:05;8.75;;;4.10;;
66139;SDS011;52945;51.908;8.364;2023-07-09T09:14:24;6.95;;;3.65;;
66139;SDS011;52945;51.908;8.364;2023-07-09T09:17:30;9.40;;;3.85;;
66139;SDS011;52945;51.908;8.364;2023-07-09T09:20:34;5.45;;;3.35;;
66139;SDS011;52945;51.908;8.364;2023-07-09T09:23:39;8.27;;;3.45;;
66139;SDS011;52945;51.908;8.364;2023-07-09T09:26:48;7.13;;;3.40;;
66139;SDS011;52945;51.908;8.364;2023-07-09T09:29:51;6.50;;;3.35;;
66139;SDS011;52945;51.908;8.364;2023-07-09T09:32:55;8.27;;;3.92;;
66139;SDS011;52945;51.908;8.364;2023-07-09T09:36:02;7.28;;;3.72;;
66139;SDS011;52945;51.908;8.364;2023-07-09T09:39:04;6.32;;;3.58;;
66139;SDS011;52945;51.908;8.364;2023-07-09T09:42:10;8.10;;;3.80;;
66139;SDS011;52945;51.908;8.364;2023-07-09T09:45:12;8.40;;;3.92;;
66139;SDS011;52945;51.908;8.364;2023-07-09T09:48:17;6.78;;;3.45;;
66139;SDS011;52945;51.908;8.364;2023-07-09T09:51:19;7.32;;;3.60;;
66139;SDS011;52945;51.908;8.364;2023-07-09T09:54:27;7.22;;;3.72;;
66139;SDS011;52945;51.908;8.364;2023-07-09T09:57:30;7.05;;;4.10;;
66139;SDS011;52945;51.908;8.364;2023-07-09T10:00:31;7.68;;;4.20;;
66139;SDS011;52945;51.908;8.364;2023-07-09T10:03:37;6.82;;;3.90;;
66139;SDS011;52945;51.908;8.364;2023-07-09T10:06:42;6.97;;;3.90;;
66139;SDS011;52945;51.908;8.364;2023-07-09T10:09:52;6.78;;;3.63;;
66139;SDS011;52945;51.908;8.364;2023-07-09T10:13:05;6.45;;;3.85;;
66139;SDS011;52945;51.908;8.364;2023-07-09T10:16:21;8.23;;;3.72;;
66139;SDS011;52945;51.908;8.364;2023-07-09T10:19:37;6.43;;;3.78;;
66139;SDS011;52945;51.908;8.364;2023-07-09T10:22:50;7.07;;;3.75;;
66139;SDS011;52945;51.908;8.364;2023-07-09T10:26:15;7.72;;;3.92;;
66139;SDS011;52945;51.908;8.364;2023-07-09T10:29:45;7.10;;;3.22;;
66139;SDS011;52945;51.908;8.364;2023-07-09T10:40:31;8.75;;;3.90;;
66139;SDS011;52945;51.908;8.364;2023-07-09T10:43:47;7.18;;;4.10;;
66139;SDS011;52945;51.908;8.364;2023-07-09T10:46:54;8.80;;;4.00;;
66139;SDS011;52945;51.908;8.364;2023-07-09T10:49:58;8.38;;;3.70;;
66139;SDS011;52945;51.908;8.364;2023-07-09T10:53:03;6.32;;;3.53;;
66139;SDS011;52945;51.908;8.364;2023-07-09T10:56:33;5.78;;;3.33;;
66139;SDS011;52945;51.908;8.364;2023-07-09T10:59:37;5.07;;;3.20;;
66139;SDS011;52945;51.908;8.364;2023-07-09T11:02:41;6.68;;;3.47;;
66139;SDS011;52945;51.908;8.364;2023-07-09T11:05:45;8.90;;;3.35;;
66139;SDS011;52945;51.908;8.364;2023-07-09T11:08:47;9.57;;;3.72;;
66139;SDS011;52945;51.908;8.364;2023-07-09T11:11:53;6.53;;;3.20;;
66139;SDS011;52945;51.908;8.364;2023-07-09T11:15:02;6.20;;;2.85;;
66139;SDS011;52945;51.908;8.364;2023-07-09T11:18:13;5.28;;;3.22;;
66139;SDS011;52945;51.908;8.364;2023-07-09T11:21:21;8.73;;;3.78;;
66139;SDS011;52945;51.908;8.364;2023-07-09T11:24:29;5.95;;;3.30;;
66139;SDS011;52945;51.908;8.364;2023-07-09T11:27:44;7.47;;;3.20;;
66139;SDS011;52945;51.908;8.364;2023-07-09T11:30:53;9.68;;;3.10;;
66139;SDS011;52945;51.908;8.364;2023-07-09T11:34:09;6.95;;;3.40;;
66139;SDS011;52945;51.908;8.364;2023-07-09T11:37:18;6.47;;;2.80;;
66139;SDS011;52945;51.908;8.364;2023-07-09T11:40:23;6.82;;;3.28;;
66139;SDS011;52945;51.908;8.364;2023-07-09T11:43:46;4.97;;;3.40;;
66139;SDS011;52945;51.908;8.364;2023-07-09T11:50:01;7.38;;;3.10;;
66139;SDS011;52945;51.908;8.364;2023-07-09T11:53:16;7.03;;;3.03;;
66139;SDS011;52945;51.908;8.364;2023-07-09T11:56:20;6.78;;;3.20;;
66139;SDS011;52945;51.908;8.364;2023-07-09T11:59:23;6.07;;;3.03;;
66139;SDS011;52945;51.908;8.364;2023-07-09T12:02:31;7.65;;;3.63;;
66139;SDS011;52945;51.908;8.364;2023-07-09T12:05:34;4.97;;;3.05;;
66139;SDS011;52945;51.908;8.364;2023-07-09T12:08:36;5.13;;;2.95;;
66139;SDS011;52945;51.908;8.364;2023-07-09T12:11:42;5.70;;;3.30;;
66139;SDS011;52945;51.908;8.364;2023-07-09T12:14:44;6.43;;;3.35;;
66139;SDS011;52945;51.908;8.364;2023-07-09T12:17:52;6.65;;;3.22;;
66139;SDS011;52945;51.908;8.364;2023-07-09T12:20:56;5.95;;;3.20;;
66139;SDS011;52945;51.908;8.364;2023-07-09T12:23:57;5.57;;;3.40;;
66139;SDS011;52945;51.908;8.364;2023-07-09T12:26:58;5.63;;;2.95;;
66139;SDS011;52945;51.908;8.364;2023-07-09T12:30:01;4.30;;;2.60;;
66139;SDS011;52945;51.908;8.364;2023-07-09T12:33:01;6.05;;;2.60;;
66139;SDS011;52945;51.908;8.364;2023-07-09T12:39:10;4.05;;;2.50;;
66139;SDS011;52945;51.908;8.364;2023-07-09T12:42:17;6.60;;;2.75;;
66139;SDS011;52945;51.908;8.364;2023-07-09T12:45:23;4.03;;;2.50;;
66139;SDS011;52945;51.908;8.364;2023-07-09T12:48:25;7.18;;;2.90;;
66139;SDS011;52945;51.908;8.364;2023-07-09T12:51:28;6.45;;;2.70;;
66139;SDS011;52945;51.908;8.364;2023-07-09T12:54:29;6.15;;;3.00;;
66139;SDS011;52945;51.908;8.364;2023-07-09T12:57:30;4.30;;;3.00;;
66139;SDS011;52945;51.908;8.364;2023-07-09T13:00:31;5.95;;;3.00;;
66139;SDS011;52945;51.908;8.364;2023-07-09T13:03:32;4.78;;;2.63;;
66139;SDS011;52945;51.908;8.364;2023-07-09T13:06:34;5.07;;;2.50;;
66139;SDS011;52945;51.908;8.364;2023-07-09T13:09:36;5.25;;;2.75;;
66139;SDS011;52945;51.908;8.364;2023-07-09T13:12:38;7.63;;;3.35;;
66139;SDS011;52945;51.908;8.364;2023-07-09T13:15:41;6.32;;;2.72;;
66139;SDS011;52945;51.908;8.364;2023-07-09T13:18:44;7.10;;;3.10;;
66139;SDS011;52945;51.908;8.364;2023-07-09T13:21:45;5.85;;;3.17;;
66139;SDS011;52945;51.908;8.364;2023-07-09T13:24:46;6.72;;;3.20;;
66139;SDS011;52945;51.908;8.364;2023-07-09T13:27:46;6.07;;;2.90;;
66139;SDS011;52945;51.908;8.364;2023-07-09T13:30:48;6.07;;;2.95;;
66139;SDS011;52945;51.908;8.364;2023-07-09T13:33:55;7.32;;;3.10;;
66139;SDS011;52945;51.908;8.364;2023-07-09T13:36:57;5.35;;;3.03;;
66139;SDS011;52945;51.908;8.364;2023-07-09T13:39:58;5.40;;;3.05;;
66139;SDS011;52945;51.908;8.364;2023-07-09T13:43:00;4.80;;;3.13;;
66139;SDS011;52945;51.908;8.364;2023-07-09T13:46:01;5.50;;;3.00;;
66139;SDS011;52945;51.908;8.364;2023-07-09T13:49:13;4.57;;;2.90;;
66139;SDS011;52945;51.908;8.364;2023-07-09T13:52:21;5.63;;;2.92;;
66139;SDS011;52945;51.908;8.364;2023-07-09T13:55:23;6.80;;;3.00;;
66139;SDS011;52945;51.908;8.364;2023-07-09T13:58:25;3.92;;;2.80;;
66139;SDS011;52945;51.908;8.364;2023-07-09T14:01:26;4.55;;;3.03;;
66139;SDS011;52945;51.908;8.364;2023-07-09T14:04:27;5.22;;;3.10;;
66139;SDS011;52945;51.908;8.364;2023-07-09T14:07:29;6.60;;;3.67;;
66139;SDS011;52945;51.908;8.364;2023-07-09T14:13:35;5.15;;;3.20;;
66139;SDS011;52945;51.908;8.364;2023-07-09T14:16:36;5.35;;;3.00;;
66139;SDS011;52945;51.908;8.364;2023-07-09T14:19:36;7.43;;;3.50;;
66139;SDS011;52945;51.908;8.364;2023-07-09T14:22:37;4.85;;;3.00;;
66139;SDS011;52945;51.908;8.364;2023-07-09T14:25:39;5.28;;;2.92;;
66139;SDS011;52945;51.908;8.364;2023-07-09T14:28:40;5.45;;;2.90;;
66139;SDS011;52945;51.908;8.364;2023-07-09T14:31:42;5.97;;;3.17;;
66139;SDS011;52945;51.908;8.364;2023-07-09T14:34:42;4.78;;;3.03;;
66139;SDS011;52945;51.908;8.364;2023-07-09T14:37:44;8.25;;;3.22;;
66139;SDS011;52945;51.908;8.364;2023-07-09T14:40:46;6.15;;;3.20;;
66139;SDS011;52945;51.908;8.364;2023-07-09T14:43:49;6.53;;;3.00;;
66139;SDS011;52945;51.908;8.364;2023-07-09T14:46:50;6.38;;;3.05;;
66139;SDS011;52945;51.908;8.364;2023-07-09T14:49:51;7.32;;;3.13;;
66139;SDS011;52945;51.908;8.364;2023-07-09T14:52:52;5.75;;;3.20;;
66139;SDS011;52945;51.908;8.364;2023-07-09T14:55:53;5.22;;;2.95;;
66139;SDS011;52945;51.908;8.364;2023-07-09T14:58:54;7.05;;;3.15;;
66139;SDS011;52945;51.908;8.364;2023-07-09T15:01:54;5.47;;;3.38;;
66139;SDS011;52945;51.908;8.364;2023-07-09T15:04:55;6.68;;;3.22;;
66139;SDS011;52945;51.908;8.364;2023-07-09T15:07:56;5.43;;;3.08;;
66139;SDS011;52945;51.908;8.364;2023-07-09T15:10:57;5.10;;;3.40;;
66139;SDS011;52945;51.908;8.364;2023-07-09T15:13:58;5.68;;;2.80;;
66139;SDS011;52945;51.908;8.364;2023-07-09T15:16:58;5.72;;;3.42;;
66139;SDS011;52945;51.908;8.364;2023-07-09T15:19:59;6.70;;;3.35;;
66139;SDS011;52945;51.908;8.364;2023-07-09T15:22:59;5.47;;;3.15;;
66139;SDS011;52945;51.908;8.364;2023-07-09T15:26:00;6.00;;;3.50;;
66139;SDS011;52945;51.908;8.364;2023-07-09T15:29:01;5.53;;;3.15;;
66139;SDS011;52945;51.908;8.364;2023-07-09T15:32:02;5.70;;;2.90;;
66139;SDS011;52945;51.908;8.364;2023-07-09T15:35:03;5.82;;;3.30;;
66139;SDS011;52945;51.908;8.364;2023-07-09T15:44:17;5.78;;;3.45;;
66139;SDS011;52945;51.908;8.364;2023-07-09T15:47:23;6.78;;;3.00;;
66139;SDS011;52945;51.908;8.364;2023-07-09T15:50:26;5.70;;;3.15;;
66139;SDS011;52945;51.908;8.364;2023-07-09T15:53:27;5.90;;;3.20;;
66139;SDS011;52945;51.908;8.364;2023-07-09T15:56:29;6.60;;;3.00;;
66139;SDS011;52945;51.908;8.364;2023-07-09T15:59:30;5.25;;;3.20;;
66139;SDS011;52945;51.908;8.364;2023-07-09T16:02:32;6.57;;;4.07;;
66139;SDS011;52945;51.908;8.364;2023-07-09T16:05:33;6.82;;;3.38;;
66139;SDS011;52945;51.908;8.364;2023-07-09T16:08:35;5.70;;;3.17;;
66139;SDS011;52945;51.908;8.364;2023-07-09T16:11:36;6.65;;;3.17;;
66139;SDS011;52945;51.908;8.364;2023-07-09T16:14:44;8.05;;;3.33;;
66139;SDS011;52945;51.908;8.364;2023-07-09T16:17:45;5.53;;;3.33;;
66139;SDS011;52945;51.908;8.364;2023-07-09T16:20:46;5.57;;;3.42;;
66139;SDS011;52945;51.908;8.364;2023-07-09T16:23:47;7.13;;;3.40;;
66139;SDS011;52945;51.908;8.364;2023-07-09T16:26:48;7.47;;;3.58;;
66139;SDS011;52945;51.908;8.364;2023-07-09T16:29:49;5.68;;;3.35;;
66139;SDS011;52945;51.908;8.364;2023-07-09T16:32:50;7.93;;;3.70;;
66139;SDS011;52945;51.908;8.364;2023-07-09T16:35:51;8.30;;;4.03;;
66139;SDS011;52945;51.908;8.364;2023-07-09T16:38:54;9.20;;;3.15;;
66139;SDS011;52945;51.908;8.364;2023-07-09T16:41:55;7.15;;;2.60;;
66139;SDS011;52945;51.908;8.364;2023-07-09T16:44:56;6.82;;;3.15;;
66139;SDS011;52945;51.908;8.364;2023-07-09T16:47:57;6.50;;;2.47;;
66139;SDS011;52945;51.908;8.364;2023-07-09T16:50:58;5.35;;;2.65;;
66139;SDS011;52945;51.908;8.364;2023-07-09T16:53:58;7.50;;;2.80;;
66139;SDS011;52945;51.908;8.364;2023-07-09T16:57:03;5.88;;;2.92;;
66139;SDS011;52945;51.908;8.364;2023-07-09T17:06:17;6.30;;;2.47;;
66139;SDS011;52945;51.908;8.364;2023-07-09T17:09:18;5.03;;;2.70;;
66139;SDS011;52945;51.908;8.364;2023-07-09T17:12:19;6.28;;;2.85;;
66139;SDS011;52945;51.908;8.364;2023-07-09T17:15:28;5.55;;;2.90;;
66139;SDS011;52945;51.908;8.364;2023-07-09T17:18:31;7.32;;;2.70;;
66139;SDS011;52945;51.908;8.364;2023-07-09T17:21:32;7.80;;;2.53;;
66139;SDS011;52945;51.908;8.364;2023-07-09T17:24:32;5.60;;;2.53;;
66139;SDS011;52945;51.908;8.364;2023-07-09T17:27:33;4.70;;;2.60;;
66139;SDS011;52945;51.908;8.364;2023-07-09T17:30:33;7.68;;;2.97;;
66139;SDS011;52945;51.908;8.364;2023-07-09T17:33:34;6.72;;;2.75;;
66139;SDS011;52945;51.908;8.364;2023-07-09T17:36:34;3.65;;;2.45;;
66139;SDS011;52945;51.908;8.364;2023-07-09T17:39:35;7.00;;;2.72;;
66139;SDS011;52945;51.908;8.364;2023-07-09T17:42:38;6.57;;;2.58;;
66139;SDS011;52945;51.908;8.364;2023-07-09T17:45:39;5.53;;;2.70;;
66139;SDS011;52945;51.908;8.364;2023-07-09T17:48:40;4.50;;;3.00;;
66139;SDS011;52945;51.908;8.364;2023-07-09T17:51:41;7.93;;;2.90;;
66139;SDS011;52945;51.908;8.364;2023-07-09T17:54:41;6.47;;;2.70;;
66139;SDS011;52945;51.908;8.364;2023-07-09T17:57:43;6.57;;;2.88;;
66139;SDS011;52945;51.908;8.364;2023-07-09T18:00:46;5.97;;;2.75;;
66139;SDS011;52945;51.908;8.364;2023-07-09T18:03:48;5.53;;;3.05;;
66139;SDS011;52945;51.908;8.364;2023-07-09T18:06:49;4.53;;;2.88;;
66139;SDS011;52945;51.908;8.364;2023-07-09T18:09:50;5.57;;;2.78;;
66139;SDS011;52945;51.908;8.364;2023-07-09T18:12:51;4.45;;;2.42;;
66139;SDS011;52945;51.908;8.364;2023-07-09T18:15:53;3.97;;;2.55;;
66139;SDS011;52945;51.908;8.364;2023-07-09T18:18:54;8.93;;;3.05;;
66139;SDS011;52945;51.908;8.364;2023-07-09T18:21:55;4.93;;;2.80;;
66139;SDS011;52945;51.908;8.364;2023-07-09T18:24:59;7.03;;;2.40;;
66139;SDS011;52945;51.908;8.364;2023-07-09T18:28:01;6.43;;;2.60;;
66139;SDS011;52945;51.908;8.364;2023-07-09T18:31:07;4.65;;;2.33;;
66139;SDS011;52945;51.908;8.364;2023-07-09T18:34:09;5.50;;;2.45;;
66139;SDS011;52945;51.908;8.364;2023-07-09T18:37:10;6.20;;;2.70;;
66139;SDS011;52945;51.908;8.364;2023-07-09T18:40:11;5.70;;;2.80;;
66139;SDS011;52945;51.908;8.364;2023-07-09T18:43:13;6.63;;;2.78;;
66139;SDS011;52945;51.908;8.364;2023-07-09T18:46:18;5.40;;;2.92;;
66139;SDS011;52945;51.908;8.364;2023-07-09T18:49:19;3.85;;;2.47;;
66139;SDS011;52945;51.908;8.364;2023-07-09T18:52:19;6.80;;;2.95;;
66139;SDS011;52945;51.908;8.364;2023-07-09T18:55:26;4.72;;;2.53;;